Teesside, United Kingdom
Current Conditions -  °F | °C
As of 10:20 AM on Friday 21 Nov 2014 (Local Time) from EGNV Reporting Station
Haze Haze  
Wind Chill: 40°   Ceiling: 3500
Heat Index: 43°   Visibility: 2.5mi
Dew Point: 41°   Wind: 5mph
Humidity: 93%   Direction: 100°E
Pressure: 30.12"   Gusts: NA
Location:  54.58°N, 1.25°W
Report Text: EGNV 211020Z 10004KT 4000 BR BKN035 06/05 Q1020
Loading
Personal Weather Stations






























Interactive Weather Map New forecast layout! Learn more

10-Day Weather Forecast

Advertisements
Track Severe Weather on mobile